Time;durP1;ratioP1;P1;durP2;ratioP2;P2;SDS_P1;SDS_P2;PMS_P1;PMS_P2;Temp;Humidity;BMP_temperature;BMP_pressure;BME280_temperature;BME280_humidity;BME280_pressure;Samples;Min_cycle;Max_cycle;Signal;HPM_P1;HPM_P2
2022/09/05 00:01:57;;;;;;;0.55;0.38;;;18.80;99.90;;;;;;6112751;23;19985;-77
2022/09/05 00:04:33;;;;;;;0.68;0.35;;;18.80;99.90;;;;;;6043483;23;20410;-77
2022/09/05 00:07:37;;;;;;;0.50;0.43;;;18.80;99.90;;;;;;6063429;23;20158;-77
2022/09/05 00:10:37;;;;;;;0.43;0.43;;;18.80;99.90;;;;;;6112383;23;20502;-77
2022/09/05 00:13:26;;;;;;;0.50;0.35;;;18.80;99.90;;;;;;6090918;23;20250;-78
2022/09/05 00:16:15;;;;;;;0.30;0.30;;;18.80;99.90;;;;;;6086830;23;20087;-77
2022/09/05 00:18:58;;;;;;;0.28;0.28;;;18.80;99.90;;;;;;6086544;23;20032;-77
2022/09/05 00:22:16;;;;;;;0.40;0.40;;;18.90;99.90;;;;;;6073177;23;20022;-77
2022/09/05 00:25:21;;;;;;;1.75;0.85;;;18.90;99.90;;;;;;6090608;23;20109;-77
2022/09/05 00:28:15;;;;;;;2.33;1.08;;;18.90;99.90;;;;;;6112441;23;20084;-77
2022/09/05 00:31:22;;;;;;;1.45;0.90;;;19.20;99.90;;;;;;6089211;23;20018;-78
2022/09/05 00:34:42;;;;;;;1.02;0.80;;;19.10;99.90;;;;;;6069685;23;20391;-80
2022/09/05 00:37:44;;;;;;;0.95;0.60;;;18.70;99.90;;;;;;6086984;23;20028;-81
2022/09/05 00:40:34;;;;;;;0.70;0.50;;;18.20;99.90;;;;;;6090991;23;20084;-83
2022/09/05 00:43:07;;;;;;;0.70;0.40;;;17.90;99.90;;;;;;6063661;23;20105;-82
2022/09/05 00:45:42;;;;;;;0.52;0.50;;;17.80;99.90;;;;;;6063390;23;20398;-80
2022/09/05 00:48:18;;;;;;;0.40;0.40;;;17.70;99.90;;;;;;6064241;23;20026;-81
2022/09/05 00:51:03;;;;;;;0.40;0.40;;;17.70;99.90;;;;;;6062817;23;20026;-81
2022/09/05 00:53:56;;;;;;;0.40;0.32;;;17.70;99.90;;;;;;6062652;23;20081;-81
2022/09/05 00:56:45;;;;;;;0.50;0.50;;;17.70;99.90;;;;;;6087365;23;20552;-80
2022/09/05 00:59:40;;;;;;;0.77;0.40;;;17.60;99.90;;;;;;6086588;23;20524;-81
2022/09/05 01:02:50;;;;;;;0.57;0.55;;;17.60;99.90;;;;;;6065098;23;20077;-80
2022/09/05 01:05:34;;;;;;;0.40;0.40;;;17.60;99.90;;;;;;6112849;23;20407;-80
2022/09/05 01:08:36;;;;;;;0.50;0.38;;;17.60;99.90;;;;;;6085994;23;20289;-81
2022/09/05 01:11:07;;;;;;;1.00;0.50;;;17.60;99.90;;;;;;5994873;23;20027;-80
2022/09/05 01:13:45;;;;;;;0.40;0.40;;;17.60;99.90;;;;;;6043420;23;20093;-80
2022/09/05 01:16:41;;;;;;;0.30;0.30;;;17.70;99.90;;;;;;6087644;23;20060;-80
2022/09/05 01:19:28;;;;;;;0.40;0.30;;;17.70;99.90;;;;;;6064826;23;20088;-80
2022/09/05 01:22:04;;;;;;;0.40;0.40;;;17.70;99.90;;;;;;6087388;23;20041;-80
2022/09/05 01:25:03;;;;;;;0.47;0.40;;;17.60;99.90;;;;;;6088521;23;20466;-80
2022/09/05 01:27:50;;;;;;;0.50;0.50;;;17.60;99.90;;;;;;6075092;23;20458;-80
2022/09/05 01:30:52;;;;;;;0.40;0.32;;;17.60;99.90;;;;;;6092998;23;20018;-80
2022/09/05 01:33:30;;;;;;;1.60;0.40;;;17.70;99.90;;;;;;6090204;23;20568;-79
2022/09/05 01:36:09;;;;;;;0.63;0.40;;;17.60;99.90;;;;;;6091194;23;20517;-80
2022/09/05 01:39:05;;;;;;;0.28;0.28;;;17.60;99.90;;;;;;6066570;23;20422;-80
2022/09/05 01:42:01;;;;;;;0.47;0.45;;;17.70;99.90;;;;;;6009772;23;20022;-80
2022/09/05 01:44:46;;;;;;;0.20;0.20;;;17.60;99.90;;;;;;6090516;23;20026;-79
2022/09/05 01:47:24;;;;;;;0.40;0.30;;;17.60;99.90;;;;;;6116039;23;20022;-80
2022/09/05 01:50:06;;;;;;;0.65;0.50;;;17.60;99.90;;;;;;6069137;23;20073;-79
2022/09/05 01:53:00;;;;;;;0.40;0.40;;;17.60;99.90;;;;;;6067640;23;20096;-80
2022/09/05 01:55:46;;;;;;;0.50;0.40;;;17.60;99.90;;;;;;6091740;23;20049;-79
2022/09/05 01:58:44;;;;;;;0.75;0.28;;;17.60;99.90;;;;;;6116252;23;20024;-79
2022/09/05 02:01:32;;;;;;;0.45;0.45;;;17.50;99.90;;;;;;6116248;23;20318;-80
2022/09/05 02:04:38;;;;;;;0.50;0.47;;;17.50;99.90;;;;;;6090150;23;20064;-80
2022/09/05 02:07:28;;;;;;;0.55;0.30;;;17.50;99.90;;;;;;6116429;23;20046;-80
2022/09/05 02:10:03;;;;;;;0.43;0.43;;;17.50;99.90;;;;;;6091459;23;20214;-80
2022/09/05 02:12:47;;;;;;;0.30;0.30;;;17.50;99.90;;;;;;6116296;23;20481;-80
2022/09/05 02:15:42;;;;;;;0.30;0.30;;;17.40;99.90;;;;;;6093670;23;20089;-80
2022/09/05 02:18:43;;;;;;;0.35;0.30;;;17.50;99.90;;;;;;6092987;23;20088;-79
2022/09/05 02:21:22;;;;;;;0.32;0.32;;;17.50;99.90;;;;;;6090805;23;20033;-80
2022/09/05 02:24:00;;;;;;;0.30;0.30;;;17.40;99.90;;;;;;6090504;23;20030;-79
2022/09/05 02:26:38;;;;;;;0.43;0.30;;;17.50;99.90;;;;;;6115973;23;20046;-79
2022/09/05 02:29:27;;;;;;;0.40;0.30;;;17.40;99.90;;;;;;6090217;23;20033;-79
2022/09/05 02:31:59;;;;;;;0.30;0.30;;;17.40;99.90;;;;;;6090101;23;20568;-79
2022/09/05 02:34:35;;;;;;;0.63;0.40;;;17.40;99.90;;;;;;6088764;23;20026;-79
2022/09/05 02:37:21;;;;;;;0.45;0.40;;;17.40;99.90;;;;;;6090939;23;20022;-79
2022/09/05 02:40:22;;;;;;;0.40;0.40;;;17.40;99.90;;;;;;6115655;23;20361;-78
2022/09/05 02:43:24;;;;;;;0.30;0.30;;;17.30;99.90;;;;;;6115506;23;20429;-79
2022/09/05 02:46:45;;;;;;;0.40;0.40;;;17.30;99.90;;;;;;6074645;23;20021;-78
2022/09/05 02:49:16;;;;;;;0.40;0.40;;;17.40;99.90;;;;;;6077046;23;20537;-78
2022/09/05 02:52:04;;;;;;;0.40;0.30;;;17.40;99.90;;;;;;6073855;23;20018;-79
2022/09/05 02:54:51;;;;;;;0.20;0.20;;;17.40;99.90;;;;;;6094502;23;20133;-79
2022/09/05 02:58:21;;;;;;;0.68;0.30;;;17.40;99.90;;;;;;6074659;23;20061;-79
2022/09/05 03:01:02;;;;;;;0.80;0.40;;;17.30;99.90;;;;;;6072670;23;20067;-78
2022/09/05 03:03:33;;;;;;;0.50;0.30;;;17.30;99.90;;;;;;6089401;23;20339;-79
2022/09/05 03:06:40;;;;;;;0.68;0.30;;;17.30;99.90;;;;;;6121663;23;20026;-79
2022/09/05 03:09:13;;;;;;;0.45;0.28;;;17.30;99.90;;;;;;6097751;23;20291;-78
2022/09/05 03:12:11;;;;;;;0.20;0.20;;;17.40;99.90;;;;;;6115811;23;20117;-78
2022/09/05 03:15:13;;;;;;;0.30;0.22;;;17.50;99.90;;;;;;6116463;23;20018;-78
2022/09/05 03:18:07;;;;;;;0.60;0.40;;;17.40;99.90;;;;;;6090953;23;20451;-78
2022/09/05 03:21:30;;;;;;;0.40;0.30;;;17.50;99.90;;;;;;6093215;23;20109;-78
2022/09/05 03:24:23;;;;;;;0.57;0.50;;;17.50;99.90;;;;;;6089435;23;20057;-78
2022/09/05 03:27:05;;;;;;;0.50;0.33;;;17.50;99.90;;;;;;6064067;23;20438;-79
2022/09/05 03:29:53;;;;;;;0.65;0.50;;;17.40;99.90;;;;;;6115621;23;20057;-79
2022/09/05 03:33:04;;;;;;;0.30;0.30;;;17.40;99.90;;;;;;6066885;23;20732;-78
2022/09/05 03:35:53;;;;;;;0.30;0.30;;;17.30;99.90;;;;;;6065352;23;20101;-78
2022/09/05 03:38:55;;;;;;;0.65;0.50;;;17.30;99.90;;;;;;6088607;23;20041;-78
2022/09/05 03:41:59;;;;;;;0.95;0.50;;;17.20;99.90;;;;;;6068940;23;20410;-78
2022/09/05 03:44:35;;;;;;;0.50;0.50;;;17.20;99.90;;;;;;6089767;23;20105;-78
2022/09/05 03:47:23;;;;;;;0.43;0.30;;;17.10;99.90;;;;;;6091318;23;20017;-78
2022/09/05 03:50:19;;;;;;;0.40;0.40;;;17.10;99.90;;;;;;6117725;23;20029;-78
2022/09/05 03:53:35;;;;;;;0.70;0.50;;;17.10;99.90;;;;;;6099445;23;20033;-78
2022/09/05 03:57:00;;;;;;;0.38;0.38;;;17.10;99.90;;;;;;6095511;23;20021;-78
2022/09/05 04:00:10;;;;;;;0.80;0.63;;;17.10;99.90;;;;;;6117212;23;20033;-77
2022/09/05 04:03:04;;;;;;;0.65;0.57;;;17.10;99.90;;;;;;6067647;23;20026;-77
2022/09/05 04:06:15;;;;;;;1.43;0.50;;;17.10;99.90;;;;;;6116972;23;20018;-77
2022/09/05 04:09:08;;;;;;;0.82;0.60;;;17.10;99.90;;;;;;6081614;23;20343;-77
2022/09/05 04:11:58;;;;;;;0.60;0.55;;;17.10;99.90;;;;;;6091936;23;20374;-77
2022/09/05 04:14:28;;;;;;;;;;;17.10;99.90;;;;;;6092684;23;20049;-77
2022/09/05 04:17:27;;;;;;;1.20;0.45;;;17.10;99.90;;;;;;6116935;23;19916;-77
2022/09/05 04:20:03;;;;;;;0.77;0.50;;;17.10;99.90;;;;;;6076736;23;20033;-77
2022/09/05 04:22:59;;;;;;;0.40;0.40;;;17.10;99.90;;;;;;6067327;23;20097;-77
2022/09/05 04:25:40;;;;;;;0.50;0.40;;;17.00;99.90;;;;;;6116995;23;20065;-77
2022/09/05 04:28:13;;;;;;;0.70;0.40;;;17.00;99.90;;;;;;6067559;23;20022;-77
2022/09/05 04:30:42;;;;;;;;;;;16.90;99.90;;;;;;6091671;23;20105;-77
2022/09/05 04:33:23;;;;;;;0.60;0.55;;;16.90;99.90;;;;;;6090547;23;20406;-77
2022/09/05 04:36:17;;;;;;;0.45;0.40;;;16.90;99.90;;;;;;6094689;23;20482;-78
2022/09/05 04:38:45;;;;;;;0.50;0.50;;;16.80;99.90;;;;;;6066830;23;20029;-78
2022/09/05 04:41:19;;;;;;;0.77;0.55;;;16.80;99.90;;;;;;6090463;23;20081;-78
2022/09/05 04:44:10;;;;;;;0.40;0.40;;;16.80;99.90;;;;;;6094550;23;20117;-78
2022/09/05 04:46:39;;;;;;;0.68;0.60;;;16.70;99.90;;;;;;6065942;23;20577;-78
2022/09/05 04:49:20;;;;;;;0.52;0.47;;;16.70;99.90;;;;;;6088370;23;20082;-79
2022/09/05 04:52:13;;;;;;;0.43;0.43;;;16.70;99.90;;;;;;6087556;23;20026;-78
2022/09/05 04:54:59;;;;;;;0.60;0.52;;;16.60;99.90;;;;;;6092728;23;20033;-78
2022/09/05 04:57:44;;;;;;;0.68;0.60;;;16.60;99.90;;;;;;6089953;23;20032;-78
2022/09/05 05:00:15;;;;;;;0.40;0.38;;;16.60;99.90;;;;;;6116152;23;20057;-79
2022/09/05 05:03:32;;;;;;;1.23;0.50;;;16.50;99.90;;;;;;6091858;23;20061;-77
2022/09/05 05:06:29;;;;;;;0.30;0.30;;;16.50;99.90;;;;;;6085135;23;20026;-78
2022/09/05 05:09:16;;;;;;;0.30;0.30;;;16.40;99.90;;;;;;6070992;23;20044;-78
2022/09/05 05:11:49;;;;;;;0.50;0.50;;;16.40;99.90;;;;;;6088930;23;20018;-78
2022/09/05 05:14:41;;;;;;;0.40;0.40;;;16.40;99.90;;;;;;6114236;23;20491;-78
2022/09/05 05:17:45;;;;;;;0.38;0.38;;;16.40;99.90;;;;;;6070738;23;20084;-78
2022/09/05 05:20:40;;;;;;;0.43;0.43;;;16.50;99.90;;;;;;6112649;23;20604;-78
2022/09/05 05:23:14;;;;;;;0.65;0.60;;;16.50;99.90;;;;;;6090525;23;20187;-78
2022/09/05 05:26:00;;;;;;;0.73;0.50;;;16.50;99.90;;;;;;6090867;23;20716;-78
2022/09/05 05:28:53;;;;;;;0.63;0.52;;;16.50;99.90;;;;;;6066233;23;20040;-78
2022/09/05 05:31:32;;;;;;;0.57;0.40;;;16.40;99.90;;;;;;6088989;23;20092;-78
2022/09/05 05:34:00;;;;;;;0.32;0.32;;;16.40;99.90;;;;;;6090675;23;20026;-78
2022/09/05 05:36:33;;;;;;;0.40;0.40;;;16.40;99.90;;;;;;6067971;23;20457;-78
2022/09/05 05:39:15;;;;;;;0.40;0.40;;;16.40;99.90;;;;;;6090810;23;20204;-78
2022/09/05 05:41:49;;;;;;;0.30;0.30;;;16.50;99.90;;;;;;6067346;23;20617;-78
2022/09/05 05:44:26;;;;;;;0.40;0.40;;;16.50;99.90;;;;;;6092235;23;20053;-77
2022/09/05 05:47:02;;;;;;;0.60;0.40;;;16.50;99.90;;;;;;6091992;23;20034;-78
2022/09/05 05:49:42;;;;;;;0.50;0.32;;;16.50;99.90;;;;;;6067472;23;20477;-78
2022/09/05 05:52:12;;;;;;;0.32;0.30;;;16.50;99.90;;;;;;6114457;23;20486;-78
2022/09/05 05:55:14;;;;;;;0.43;0.30;;;16.60;99.90;;;;;;6114494;23;20053;-78
2022/09/05 05:58:29;;;;;;;0.28;0.28;;;16.60;99.90;;;;;;6095020;23;20050;-77
2022/09/05 06:01:29;;;;;;;0.60;0.40;;;16.60;99.90;;;;;;6116629;23;20476;-77
2022/09/05 06:04:10;;;;;;;0.73;0.50;;;16.60;99.90;;;;;;6089442;23;20077;-78
2022/09/05 06:07:08;;;;;;;0.30;0.30;;;16.60;99.90;;;;;;6083521;23;20748;-77
2022/09/05 06:09:57;;;;;;;0.38;0.28;;;16.60;99.90;;;;;;6060691;23;20116;-79
2022/09/05 06:12:53;;;;;;;0.63;0.40;;;16.70;99.90;;;;;;6088303;23;20026;-80
2022/09/05 06:15:59;;;;;;;0.30;0.30;;;16.70;99.90;;;;;;6109506;23;20113;-80
2022/09/05 06:18:51;;;;;;;0.40;0.40;;;16.70;99.90;;;;;;6084051;23;20038;-78
2022/09/05 06:21:26;;;;;;;0.43;0.43;;;16.80;99.90;;;;;;6084366;23;20137;-78
2022/09/05 06:24:30;;;;;;;0.38;0.20;;;16.80;99.90;;;;;;6087817;23;20086;-78
2022/09/05 06:27:30;;;;;;;0.80;0.50;;;16.90;99.90;;;;;;6060369;23;20132;-78
2022/09/05 06:30:05;;;;;;;0.40;0.40;;;17.00;99.90;;;;;;6060047;23;20193;-79
2022/09/05 06:32:42;;;;;;;0.40;0.40;;;17.00;99.90;;;;;;6081566;23;20656;-79
2022/09/05 06:35:30;;;;;;;0.52;0.40;;;17.00;99.90;;;;;;6063730;23;20032;-79
2022/09/05 06:38:25;;;;;;;0.30;0.30;;;17.10;99.90;;;;;;6081871;23;20101;-79
2022/09/05 06:41:43;;;;;;;0.40;0.30;;;17.20;99.90;;;;;;6058223;23;20489;-79
2022/09/05 06:44:23;;;;;;;0.30;0.30;;;17.20;99.90;;;;;;6081999;23;20026;-79
2022/09/05 06:46:55;;;;;;;0.55;0.35;;;17.20;99.90;;;;;;6060695;23;20065;-79
2022/09/05 06:50:10;;;;;;;0.30;0.20;;;17.30;99.90;;;;;;6067124;23;20022;-79
2022/09/05 06:53:22;;;;;;;0.70;0.30;;;17.30;99.90;;;;;;6087326;23;20032;-79
2022/09/05 06:56:33;;;;;;;0.30;0.28;;;17.40;99.90;;;;;;6050584;23;20026;-80
2022/09/05 06:59:22;;;;;;;0.45;0.30;;;17.40;99.90;;;;;;5970190;23;20065;-79
2022/09/05 07:02:14;;;;;;;0.20;0.20;;;17.50;99.90;;;;;;6078002;23;20380;-79
2022/09/05 07:05:01;;;;;;;0.38;0.25;;;17.60;99.90;;;;;;6078327;23;20133;-79
2022/09/05 07:07:54;;;;;;;0.28;0.25;;;17.60;99.90;;;;;;6079059;23;20644;-80
2022/09/05 07:10:40;;;;;;;0.65;0.30;;;17.70;99.90;;;;;;6079826;23;20424;-79
2022/09/05 07:13:18;;;;;;;0.88;0.30;;;17.70;99.90;;;;;;6055279;23;20041;-75
2022/09/05 07:16:26;;;;;;;0.40;0.40;;;17.80;99.90;;;;;;6076104;23;20041;-76
2022/09/05 07:19:26;;;;;;;0.57;0.38;;;17.90;99.90;;;;;;6053188;23;20085;-76
2022/09/05 07:22:44;;;;;;;0.75;0.52;;;17.90;99.90;;;;;;6076659;23;20030;-76
2022/09/05 07:25:17;;;;;;;0.52;0.30;;;17.90;99.90;;;;;;6062410;23;20483;-76
2022/09/05 07:28:00;;;;;;;0.73;0.40;;;18.00;99.90;;;;;;6077444;23;20026;-76
2022/09/05 07:30:54;;;;;;;0.75;0.50;;;18.00;99.90;;;;;;6077571;23;20034;-76
2022/09/05 07:33:28;;;;;;;0.47;0.45;;;18.10;99.90;;;;;;6077653;23;20030;-76
2022/09/05 07:36:09;;;;;;;1.00;0.30;;;18.10;99.90;;;;;;6078654;23;20064;-76
2022/09/05 07:38:37;;;;;;;0.32;0.30;;;18.10;99.90;;;;;;6077649;23;20022;-76
2022/09/05 07:41:34;;;;;;;0.38;0.38;;;18.20;99.90;;;;;;6077670;23;20101;-76
2022/09/05 07:44:07;;;;;;;0.80;0.50;;;18.20;99.90;;;;;;6078130;23;20547;-77
2022/09/05 07:46:38;;;;;;;0.65;0.50;;;18.20;99.90;;;;;;6054788;23;20105;-76
2022/09/05 07:49:07;;;;;;;0.57;0.50;;;18.30;99.90;;;;;;6077285;23;20471;-76
2022/09/05 07:51:36;;;;;;;0.57;0.50;;;18.30;99.90;;;;;;6077033;23;20105;-76
2022/09/05 07:54:34;;;;;;;1.08;0.60;;;18.40;99.90;;;;;;6058367;23;20533;-77
2022/09/05 07:57:23;;;;;;;0.80;0.45;;;18.50;99.90;;;;;;6058089;23;20101;-77
2022/09/05 08:00:05;;;;;;;0.47;0.47;;;18.60;99.90;;;;;;6078187;23;20038;-77
2022/09/05 08:02:33;;;;;;;0.68;0.50;;;18.70;99.90;;;;;;6077848;23;20034;-76
2022/09/05 08:05:03;;;;;;;1.15;0.65;;;18.80;99.90;;;;;;6054906;23;20061;-76
2022/09/05 08:07:34;;;;;;;0.52;0.50;;;18.90;99.90;;;;;;6053973;23;20023;-77
2022/09/05 08:10:35;;;;;;;0.50;0.40;;;19.00;99.90;;;;;;6077665;23;20553;-77
2022/09/05 08:13:26;;;;;;;0.95;0.60;;;19.10;99.90;;;;;;6077821;23;20033;-77
2022/09/05 08:15:55;;;;;;;0.73;0.55;;;19.20;99.90;;;;;;6053579;23;20026;-76
2022/09/05 08:18:40;;;;;;;0.30;0.30;;;19.20;99.90;;;;;;6056130;23;20122;-76
2022/09/05 08:21:10;;;;;;;0.60;0.50;;;19.30;99.90;;;;;;6077725;23;20022;-76
2022/09/05 08:23:55;;;;;;;0.60;0.47;;;19.50;99.90;;;;;;6053685;23;20022;-77
2022/09/05 08:26:42;;;;;;;0.57;0.40;;;19.60;99.90;;;;;;6077355;23;20030;-76
2022/09/05 08:29:35;;;;;;;0.30;0.30;;;19.70;99.90;;;;;;6079316;23;20352;-77
2022/09/05 08:32:11;;;;;;;0.38;0.38;;;19.80;99.90;;;;;;6053781;23;20054;-76
2022/09/05 08:34:43;;;;;;;0.85;0.70;;;19.90;99.90;;;;;;6079075;23;20026;-77
2022/09/05 08:37:19;;;;;;;0.40;0.40;;;19.90;99.90;;;;;;6079970;23;20040;-77
2022/09/05 08:40:06;;;;;;;0.60;0.30;;;20.00;99.90;;;;;;6056284;23;20097;-77
2022/09/05 08:42:54;;;;;;;0.40;0.40;;;20.00;99.90;;;;;;6056714;23;20018;-77
2022/09/05 08:45:42;;;;;;;0.93;0.30;;;20.10;99.90;;;;;;6058978;23;20036;-77
2022/09/05 08:48:45;;;;;;;0.68;0.50;;;20.20;99.90;;;;;;6079092;23;20036;-77
2022/09/05 08:51:21;;;;;;;0.57;0.40;;;20.30;99.90;;;;;;6081374;23;20283;-77
2022/09/05 08:54:03;;;;;;;1.05;0.60;;;20.30;99.90;;;;;;6081342;23;20057;-76
2022/09/05 08:56:36;;;;;;;1.10;0.52;;;20.30;99.90;;;;;;6079572;23;20106;-76
2022/09/05 08:59:15;;;;;;;0.80;0.52;;;20.40;99.90;;;;;;6078392;23;20117;-77
2022/09/05 09:02:43;;;;;;;0.40;0.40;;;20.40;99.90;;;;;;6099381;23;20026;-77
2022/09/05 09:05:36;;;;;;;0.80;0.60;;;20.50;99.90;;;;;;6059805;23;20056;-77
2022/09/05 09:08:25;;;;;;;0.52;0.40;;;20.60;99.90;;;;;;6088521;23;20026;-77
2022/09/05 09:11:03;;;;;;;0.88;0.40;;;20.80;99.90;;;;;;6109573;23;20295;-77
2022/09/05 09:14:15;;;;;;;1.23;0.75;;;21.00;99.90;;;;;;6084626;23;20045;-77
2022/09/05 09:17:21;;;;;;;0.50;0.40;;;21.20;99.90;;;;;;6086745;23;20434;-76
2022/09/05 09:19:54;;;;;;;0.98;0.60;;;21.40;99.90;;;;;;6084174;23;20026;-76
2022/09/05 09:23:05;;;;;;;0.68;0.50;;;21.50;99.90;;;;;;6109193;23;20045;-76
2022/09/05 09:25:37;;;;;;;0.52;0.40;;;21.50;99.90;;;;;;6058591;23;20114;-76
2022/09/05 09:28:09;;;;;;;;;;;21.70;99.90;;;;;;6061349;23;20029;-76
2022/09/05 09:30:58;;;;;;;0.45;0.30;;;21.80;99.90;;;;;;6087971;23;20029;-76
2022/09/05 09:33:36;;;;;;;1.45;0.50;;;21.90;99.90;;;;;;6082461;23;20076;-76
2022/09/05 09:36:14;;;;;;;0.63;0.40;;;22.00;99.90;;;;;;6060560;23;20022;-76
2022/09/05 09:38:47;;;;;;;0.40;0.40;;;22.10;99.90;;;;;;6083904;23;20076;-76
2022/09/05 09:41:25;;;;;;;0.68;0.40;;;22.10;99.90;;;;;;6084114;23;20063;-75
2022/09/05 09:44:19;;;;;;;1.20;0.68;;;22.10;99.90;;;;;;6108571;23;20100;-75
2022/09/05 09:46:46;;;;;;;1.13;0.60;;;22.10;99.90;;;;;;6108660;23;20172;-76
2022/09/05 09:49:55;;;;;;;0.60;0.38;;;22.10;99.90;;;;;;6082831;23;20034;-76
2022/09/05 09:52:43;;;;;;;0.98;0.70;;;22.10;99.90;;;;;;6076262;23;20034;-77
2022/09/05 09:55:29;;;;;;;0.90;0.60;;;22.00;99.90;;;;;;6084130;23;20109;-77
2022/09/05 09:58:08;;;;;;;0.50;0.45;;;22.10;99.90;;;;;;6083370;23;20022;-76
2022/09/05 10:00:42;;;;;;;0.73;0.50;;;22.10;99.90;;;;;;6082746;23;20029;-76
2022/09/05 10:03:15;;;;;;;1.08;0.80;;;22.20;99.90;;;;;;6082598;23;20421;-76
2022/09/05 10:06:18;;;;;;;0.95;0.60;;;22.30;99.90;;;;;;6087406;23;20401;-77
2022/09/05 10:09:24;;;;;;;0.45;0.45;;;22.40;99.90;;;;;;6088059;23;20026;-77
2022/09/05 10:12:25;;;;;;;0.90;0.77;;;22.40;99.90;;;;;;6087837;23;20026;-76
2022/09/05 10:15:02;;;;;;;0.95;0.50;;;22.40;99.90;;;;;;6086374;23;20038;-76
2022/09/05 10:18:22;;;;;;;1.02;0.73;;;22.50;99.90;;;;;;6067794;23;20021;-76
2022/09/05 10:21:13;;;;;;;1.52;0.70;;;22.50;99.90;;;;;;6060111;23;20435;-76
2022/09/05 10:23:55;;;;;;;0.80;0.60;;;22.50;99.90;;;;;;6109388;23;20185;-76
2022/09/05 10:26:44;;;;;;;1.25;0.60;;;22.60;99.90;;;;;;6083223;23;20364;-76
2022/09/05 10:29:40;;;;;;;0.95;0.50;;;22.70;99.90;;;;;;6090268;23;20022;-76
2022/09/05 10:32:48;;;;;;;0.85;0.57;;;22.70;99.90;;;;;;6112895;23;20049;-75
2022/09/05 10:35:37;;;;;;;0.70;0.55;;;22.80;99.90;;;;;;6061754;23;20022;-76
2022/09/05 10:38:13;;;;;;;0.73;0.50;;;22.90;99.90;;;;;;6091602;23;20022;-76
2022/09/05 10:40:43;;;;;;;0.57;0.40;;;22.80;99.90;;;;;;6091616;23;20033;-76
2022/09/05 10:43:29;;;;;;;0.40;0.30;;;22.80;99.90;;;;;;6075847;23;20101;-77
2022/09/05 10:45:56;;;;;;;0.65;0.40;;;22.60;99.90;;;;;;6089703;23;20085;-76
2022/09/05 10:48:45;;;;;;;0.73;0.47;;;22.60;99.90;;;;;;6088761;23;20564;-76
2022/09/05 10:51:23;;;;;;;1.05;0.55;;;22.60;99.90;;;;;;6082752;23;20029;-75
2022/09/05 10:54:02;;;;;;;0.60;0.55;;;22.60;99.90;;;;;;6082546;23;20060;-76
2022/09/05 10:56:31;;;;;;;1.13;0.70;;;22.60;99.90;;;;;;6107236;23;20021;-76
2022/09/05 10:59:03;;;;;;;0.75;0.60;;;22.60;99.90;;;;;;6081845;23;20081;-76
2022/09/05 11:02:06;;;;;;;0.40;0.40;;;22.60;99.90;;;;;;6086765;23;20352;-76
2022/09/05 11:05:07;;;;;;;0.60;0.40;;;22.60;99.90;;;;;;6066559;23;20045;-76
2022/09/05 11:08:02;;;;;;;0.75;0.43;;;22.80;99.90;;;;;;6080732;23;20038;-76
2022/09/05 11:10:33;;;;;;;1.05;0.45;;;23.00;99.90;;;;;;6076666;23;20406;-75
2022/09/05 11:13:35;;;;;;;0.70;0.50;;;23.10;99.90;;;;;;6058709;23;20054;-76
2022/09/05 11:16:14;;;;;;;1.08;0.80;;;23.30;99.90;;;;;;6086271;23;20293;-77
2022/09/05 11:18:51;;;;;;;0.65;0.55;;;23.40;99.90;;;;;;6058788;23;20026;-77
2022/09/05 11:21:37;;;;;;;1.00;0.50;;;23.50;99.90;;;;;;6082787;23;20029;-77
2022/09/05 11:24:19;;;;;;;0.50;0.40;;;23.70;99.90;;;;;;6108478;23;20185;-78
2022/09/05 11:27:00;;;;;;;0.75;0.55;;;24.10;99.90;;;;;;6063220;23;20330;-79
2022/09/05 11:29:50;;;;;;;0.50;0.40;;;24.40;99.90;;;;;;6086210;23;20377;-78
2022/09/05 11:32:44;;;;;;;2.40;0.60;;;24.60;99.90;;;;;;6080771;23;20030;-78
2022/09/05 11:35:45;;;;;;;1.60;0.50;;;24.60;99.90;;;;;;6086154;23;20033;-78
2022/09/05 11:38:58;;;;;;;0.47;0.47;;;24.70;99.90;;;;;;6066284;23;20054;-78
2022/09/05 11:42:09;;;;;;;0.90;0.60;;;24.60;99.90;;;;;;6066746;23;20025;-78
2022/09/05 11:44:51;;;;;;;1.02;0.63;;;24.80;99.90;;;;;;6060570;23;20109;-78
2022/09/05 11:47:43;;;;;;;0.57;0.47;;;24.80;99.90;;;;;;6058197;23;20082;-78
2022/09/05 11:50:40;;;;;;;0.80;0.77;;;24.80;99.90;;;;;;6107933;23;20032;-78
2022/09/05 11:53:39;;;;;;;0.95;0.68;;;24.70;99.90;;;;;;6057988;23;20267;-78
2022/09/05 11:56:30;;;;;;;1.73;0.70;;;24.60;99.90;;;;;;6081942;23;20164;-78
2022/09/05 11:59:06;;;;;;;1.08;0.75;;;24.70;99.90;;;;;;6086668;23;20033;-78
2022/09/05 12:02:16;;;;;;;0.90;0.80;;;24.60;99.90;;;;;;6081182;23;20046;-78
2022/09/05 12:05:19;;;;;;;1.33;0.73;;;24.60;99.90;;;;;;6077039;23;20032;-78
2022/09/05 12:08:29;;;;;;;1.10;0.73;;;24.50;99.90;;;;;;6097990;23;20701;-78
2022/09/05 12:11:04;;;;;;;1.23;0.80;;;24.50;99.90;;;;;;6067575;23;20029;-78
2022/09/05 12:13:37;;;;;;;1.42;0.88;;;24.50;99.90;;;;;;6082222;23;20026;-78
2022/09/05 12:16:25;;;;;;;1.20;0.90;;;24.30;99.90;;;;;;6081984;23;20529;-78
2022/09/05 12:19:25;;;;;;;1.27;0.77;;;24.00;99.90;;;;;;6107498;23;20132;-79
2022/09/05 12:22:09;;;;;;;0.63;0.55;;;23.90;99.90;;;;;;6108056;23;20058;-78
2022/09/05 12:25:08;;;;;;;1.05;0.73;;;23.80;99.90;;;;;;6090876;23;20032;-78
2022/09/05 12:27:57;;;;;;;1.60;1.08;;;23.70;99.90;;;;;;6086934;23;20104;-78
2022/09/05 12:30:44;;;;;;;1.17;0.75;;;23.60;99.90;;;;;;6084843;23;20121;-78
2022/09/05 12:33:32;;;;;;;1.00;0.80;;;23.70;99.90;;;;;;6083918;23;20022;-78
2022/09/05 12:36:38;;;;;;;0.75;0.70;;;23.80;99.90;;;;;;6066367;23;20629;-78
2022/09/05 12:39:25;;;;;;;1.10;0.63;;;23.90;99.90;;;;;;6086972;23;20025;-78
2022/09/05 12:42:17;;;;;;;0.75;0.65;;;24.00;99.90;;;;;;6108870;23;20029;-78
2022/09/05 12:45:08;;;;;;;0.68;0.60;;;24.20;99.90;;;;;;6085296;23;20475;-78
2022/09/05 12:48:05;;;;;;;0.57;0.57;;;24.40;99.90;;;;;;6106563;23;20034;-78
2022/09/05 12:50:53;;;;;;;0.82;0.57;;;24.70;99.90;;;;;;6056133;23;20026;-78
2022/09/05 12:53:20;;;;;;;0.57;0.47;;;24.90;99.90;;;;;;6082036;23;20259;-78
2022/09/05 12:55:57;;;;;;;0.40;0.40;;;25.00;99.90;;;;;;6082311;23;20041;-78
2022/09/05 12:58:47;;;;;;;0.60;0.57;;;25.00;99.90;;;;;;6066804;23;20405;-78
2022/09/05 13:01:37;;;;;;;1.83;0.55;;;25.10;99.90;;;;;;6065521;23;20446;-78
2022/09/05 13:04:26;;;;;;;0.40;0.40;;;25.10;99.90;;;;;;6085673;23;20048;-78
2022/09/05 13:07:06;;;;;;;0.60;0.50;;;25.20;99.90;;;;;;6059136;23;20053;-78
2022/09/05 13:09:43;;;;;;;0.40;0.40;;;25.20;99.90;;;;;;6059132;23;20155;-78
2022/09/05 13:12:32;;;;;;;0.38;0.28;;;25.30;99.90;;;;;;6065751;23;20158;-78
2022/09/05 13:15:21;;;;;;;0.40;0.40;;;25.50;99.90;;;;;;6085806;23;20022;-76
2022/09/05 13:17:52;;;;;;;0.50;0.40;;;25.50;99.90;;;;;;6081303;23;20052;-76
2022/09/05 13:20:33;;;;;;;0.60;0.40;;;25.40;99.90;;;;;;6083468;23;20018;-76
2022/09/05 13:23:11;;;;;;;0.95;0.60;;;25.20;99.90;;;;;;6083385;23;20113;-76
2022/09/05 13:25:40;;;;;;;0.40;0.40;;;25.10;99.90;;;;;;6060113;23;20033;-76
2022/09/05 13:28:09;;;;;;;1.10;0.60;;;25.00;99.90;;;;;;6083609;23;20100;-76
2022/09/05 13:30:37;;;;;;;0.50;0.30;;;25.00;99.90;;;;;;6083090;23;20133;-76
2022/09/05 13:33:30;;;;;;;0.55;0.50;;;24.90;99.90;;;;;;6067139;23;20100;-77
2022/09/05 13:36:20;;;;;;;0.30;0.30;;;24.90;99.90;;;;;;6087197;23;20113;-76
2022/09/05 13:39:10;;;;;;;0.32;0.32;;;24.80;99.90;;;;;;6087973;23;20028;-75
2022/09/05 13:41:42;;;;;;;0.80;0.50;;;24.80;99.90;;;;;;6083796;23;20104;-76
2022/09/05 13:44:12;;;;;;;0.70;0.50;;;24.70;99.90;;;;;;6083072;23;20394;-77
2022/09/05 13:47:25;;;;;;;0.75;0.65;;;24.60;99.90;;;;;;6084339;23;20025;-76
2022/09/05 13:50:04;;;;;;;0.55;0.50;;;24.50;99.90;;;;;;6071554;23;20350;-76
2022/09/05 13:52:33;;;;;;;0.82;0.52;;;24.50;99.90;;;;;;6109077;23;20438;-76
2022/09/05 13:55:10;;;;;;;0.68;0.50;;;24.50;99.90;;;;;;6083976;23;20072;-76
2022/09/05 13:57:43;;;;;;;1.05;0.65;;;24.40;99.90;;;;;;6083144;23;20117;-76
2022/09/05 14:00:11;;;;;;;0.85;0.55;;;24.40;99.90;;;;;;6082408;23;20026;-76
2022/09/05 14:03:12;;;;;;;0.93;0.55;;;24.20;99.90;;;;;;6085908;23;20026;-76
2022/09/05 14:06:47;;;;;;;1.00;0.63;;;24.10;99.90;;;;;;6108653;23;20109;-76
2022/09/05 14:09:37;;;;;;;1.50;0.60;;;24.10;99.90;;;;;;6085478;23;20408;-76
2022/09/05 14:12:10;;;;;;;1.73;0.63;;;24.10;99.90;;;;;;6109955;23;20461;-76
2022/09/05 14:15:22;;;;;;;0.73;0.50;;;24.10;99.90;;;;;;6083450;23;20613;-76
2022/09/05 14:18:01;;;;;;;0.70;0.60;;;24.10;99.90;;;;;;6108452;23;20056;-76
2022/09/05 14:21:15;;;;;;;1.13;0.68;;;24.20;99.90;;;;;;6067444;23;20026;-76
2022/09/05 14:24:08;;;;;;;0.75;0.30;;;24.50;99.90;;;;;;6035265;23;20366;-77
2022/09/05 14:26:49;;;;;;;0.30;0.30;;;24.60;99.90;;;;;;6064209;23;20472;-76
2022/09/05 14:29:39;;;;;;;0.55;0.45;;;24.70;99.90;;;;;;6082350;23;20550;-75
2022/09/05 14:32:14;;;;;;;0.40;0.35;;;24.70;99.90;;;;;;6091859;23;20294;-75
2022/09/05 14:35:06;;;;;;;0.47;0.43;;;24.70;99.90;;;;;;6086035;23;20097;-77
2022/09/05 14:38:34;;;;;;;0.77;0.30;;;24.70;99.90;;;;;;6086880;23;20026;-78